Al Rekayyat — V7QF3 — position and weather

sailwx.info

Track history (hours):
 
Tides and Currents Weather Stations Pressure Air Temp Water Temp Dewpoint Dewpoint Depression Visibility Wind Speed Wind Dir Waves Ship Positions

Al Rekayyat

Last reported at 2017-Aug-13 09:31 UTC. Time now 2017-Aug-20 23:06 UTC.
Position N 01°19' E 103°18'.

Length 315 m; draft 9.4 m.

Type: Ship (hazmat cat D). MMSI: 538003347.

Date/timePositionNaut miles runAvg speedWind from/ knotsBaromVisibWave heightAir tempDewpointWater temp
2017-Aug-13 09:31N 01°19' E 103°18'217.7
2017-Aug-13 09:24N 01°18' E 103°20'717.4
2017-Aug-13 08:59N 01°14' E 103°26'816.1
2017-Aug-13 08:30N 01°12' E 103°33'713.3
2017-Aug-13 07:59N 01°11' E 103°40'2 4.6
2017-Aug-13 07:31N 01°10' E 103°42'0 0.3
2017-Aug-13 06:55N 01°10' E 103°43'0 0.0
2017-Aug-13 06:28N 01°10' E 103°43'0 0.0
2017-Aug-13 05:56N 01°10' E 103°43'0 0.0
2017-Aug-13 05:26N 01°10' E 103°43'0 0.0
2017-Aug-13 04:53N 01°10' E 103°43'0 0.0
2017-Aug-13 04:30N 01°10' E 103°43'0 0.0
2017-Aug-13 03:54N 01°10' E 103°43'0 0.1
2017-Aug-13 03:30N 01°11' E 103°43'0 0.0
2017-Aug-13 03:01N 01°11' E 103°43'0 0.1
2017-Aug-13 02:28N 01°11' E 103°42'0 0.1
2017-Aug-13 01:58N 01°11' E 103°43'0 0.0
2017-Aug-13 01:29N 01°11' E 103°43'0 0.0
2017-Aug-13 00:59N 01°11' E 103°43'0 0.0
2017-Aug-13 00:29N 01°10' E 103°43'0 0.0
2017-Aug-12 23:59N 01°10' E 103°43'0 0.0
2017-Aug-12 23:30N 01°10' E 103°43'0 0.0
2017-Aug-12 23:00N 01°10' E 103°43'0 0.0
2017-Aug-12 22:30N 01°10' E 103°43'0 0.0
2017-Aug-12 21:55N 01°10' E 103°43'0 0.0
2017-Aug-12 21:28N 01°10' E 103°43'0 0.0
2017-Aug-12 20:58N 01°10' E 103°43'0 0.0
2017-Aug-12 20:29N 01°10' E 103°43'0 0.0
2017-Aug-12 19:56N 01°10' E 103°43'0 0.0
2017-Aug-12 19:20N 01°10' E 103°43'0 0.0
2017-Aug-12 18:54N 01°10' E 103°43'0 0.1
2017-Aug-12 18:30N 01°10' E 103°43'0 0.1
2017-Aug-12 17:54N 01°10' E 103°43'0 0.0
2017-Aug-12 17:25N 01°10' E 103°43'0 0.0
2017-Aug-12 16:58N 01°10' E 103°43'0 0.1
2017-Aug-12 16:25N 01°11' E 103°43'0 0.3
2017-Aug-12 15:44N 01°11' E 103°42'0 0.2
2017-Aug-12 15:26N 01°11' E 103°42'0 0.2
2017-Aug-12 14:59N 01°11' E 103°42'0 0.0
2017-Aug-12 14:30N 01°11' E 103°42'0 0.0
2017-Aug-12 13:57N 01°11' E 103°42'0 0.0
2017-Aug-12 13:27N 01°11' E 103°42'0 0.1
2017-Aug-12 12:58N 01°11' E 103°42'0 0.1
2017-Aug-12 12:22N 01°11' E 103°42'0 0.1
2017-Aug-12 11:55N 01°11' E 103°42'0 0.1
2017-Aug-12 11:26N 01°11' E 103°42'0 0.0
2017-Aug-12 10:59N 01°11' E 103°42'0 0.1
2017-Aug-12 10:29N 01°11' E 103°43'0 0.1
2017-Aug-12 09:54N 01°10' E 103°43'0 0.0
2017-Aug-12 09:30N 01°10' E 103°43'0 0.0
2017-Aug-12 08:57N 01°10' E 103°43'0 0.0
2017-Aug-12 08:31N 01°10' E 103°43'0 0.1
2017-Aug-12 07:58N 01°10' E 103°43'0 0.0
2017-Aug-12 07:22N 01°10' E 103°43'0 0.1
2017-Aug-12 06:59N 01°10' E 103°43'0 0.0
2017-Aug-12 06:29N 01°10' E 103°43'0 0.1
2017-Aug-12 05:59N 01°10' E 103°43'0 0.1
2017-Aug-12 05:30N 01°10' E 103°43'0 0.1
2017-Aug-12 04:57N 01°10' E 103°43'0 0.3
2017-Aug-12 04:30N 01°11' E 103°42'0 0.1
2017-Aug-12 04:00N 01°11' E 103°42'0 0.3
2017-Aug-12 03:30N 01°10' E 103°43'0 0.0
2017-Aug-12 03:00N 01°10' E 103°43'0 0.0
2017-Aug-12 02:30N 01°10' E 103°43'0 0.1
2017-Aug-12 02:00N 01°10' E 103°43'0 0.1
2017-Aug-12 01:30N 01°10' E 103°43'0 0.2
2017-Aug-12 01:00N 01°10' E 103°42'2 3.7
2017-Aug-12 00:30N 01°09' E 103°44'4 8.3
2017-Aug-12 00:00N 01°11' E 103°48'4 8.1
2017-Aug-11 23:30N 01°12' E 103°52'612.4
2017-Aug-11 23:00N 01°14' E 103°57'713.4
2017-Aug-11 22:30N 01°16' E 104°04'  
2017-Aug-05 09:58N 33°50' E 135°00'816.8
2017-Aug-05 09:30N 33°58' E 134°58'815.6
2017-Aug-05 09:00N 34°06' E 134°58'612.4
2017-Aug-05 08:31N 34°12' E 134°57'4 7.1
2017-Aug-05 08:00N 34°15' E 134°58'611.5
2017-Aug-05 07:30N 34°21' E 135°00'612.8
2017-Aug-05 07:00N 34°25' E 135°05'713.4
2017-Aug-05 06:30N 34°29' E 135°12'612.6
2017-Aug-05 06:00N 34°33' E 135°18'4 7.9
2017-Aug-05 05:30N 34°33' E 135°23'1 2.0
2017-Aug-05 05:00N 34°34' E 135°24'0 0.0
2017-Aug-05 04:19N 34°34' E 135°24'0 0.0
2017-Aug-05 03:49N 34°34' E 135°24'0 0.0
2017-Aug-05 03:13N 34°34' E 135°24'0 0.0
2017-Aug-05 02:44N 34°34' E 135°24'0 0.0
2017-Aug-05 02:26N 34°34' E 135°24'0 0.0
2017-Aug-05 01:56N 34°34' E 135°24'0 0.0
2017-Aug-05 01:27N 34°34' E 135°24'0 0.0
2017-Aug-05 00:04N 34°34' E 135°24'0 0.0
2017-Aug-04 23:52N 34°34' E 135°24'0 0.0
2017-Aug-04 23:28N 34°34' E 135°24'0 0.0
2017-Aug-04 22:58N 34°34' E 135°24'0 0.0
2017-Aug-04 22:17N 34°34' E 135°24'0 0.0
2017-Aug-04 21:59N 34°34' E 135°24'0 0.0
2017-Aug-04 21:29N 34°34' E 135°24'0 0.0
2017-Aug-04 21:00N 34°34' E 135°24'0 0.0
2017-Aug-04 20:30N 34°34' E 135°24'0 0.0
2017-Aug-04 20:00N 34°34' E 135°24'0 0.0
2017-Aug-04 19:25N 34°34' E 135°24'0 0.0
2017-Aug-04 18:55N 34°34' E 135°24'0 0.0
2017-Aug-04 18:19N 34°34' E 135°24'0 0.0
2017-Aug-04 17:50N 34°34' E 135°24'0 0.0
2017-Aug-04 17:26N 34°34' E 135°24'0 0.0
2017-Aug-04 16:56N 34°34' E 135°24'0 0.0
2017-Aug-04 16:27N 34°34' E 135°24'0 0.0
2017-Aug-04 15:57N 34°34' E 135°24'0 0.0
2017-Aug-04 15:21N 34°34' E 135°24'0 0.0
2017-Aug-04 14:58N 34°34' E 135°24'0 0.0
2017-Aug-04 13:58N 34°34' E 135°24'0 0.0
2017-Aug-04 13:29N 34°34' E 135°24'0 0.0
2017-Aug-04 12:59N 34°34' E 135°24'0 0.0
2017-Aug-04 12:29N 34°34' E 135°24'0 0.0
2017-Aug-04 12:00N 34°34' E 135°24'0 0.0
2017-Aug-04 11:30N 34°34' E 135°24'0 0.0
2017-Aug-04 11:00N 34°34' E 135°24'0 0.0
2017-Aug-04 10:19N 34°34' E 135°24'0 0.0
2017-Aug-04 08:56N 34°34' E 135°24'0 0.0
2017-Aug-04 08:26N 34°34' E 135°24'0 0.0
2017-Aug-04 07:56N 34°34' E 135°24'0 0.0
2017-Aug-04 04:29N 34°34' E 135°24'0 0.0
2017-Aug-04 03:47N 34°34' E 135°24'0 0.0
2017-Aug-04 03:11N 34°34' E 135°24'0 0.0
2017-Aug-04 03:00N 34°34' E 135°24'0 0.0
2017-Aug-04 00:52N 34°34' E 135°24'0 0.0
2017-Aug-04 00:30N 34°34' E 135°24'0 0.0
2017-Aug-04 00:00N 34°34' E 135°24'1 1.1
2017-Aug-03 23:30N 34°34' E 135°24'3 6.6
2017-Aug-03 23:00N 34°33' E 135°20'4 8.9
2017-Aug-03 22:30N 34°31' E 135°15'510.0
2017-Aug-03 22:00N 34°28' E 135°10'612.2
2017-Aug-03 21:30N 34°24' E 135°05'713.3
2017-Aug-03 20:59N 34°18' E 135°00'612.5
2017-Aug-03 20:30N 34°12' E 134°60'510.3
2017-Aug-03 20:00N 34°07' E 135°00'4 8.2
2017-Aug-03 19:30N 34°03' E 135°00'5 9.0
2017-Aug-03 19:00N 33°58' E 135°00'  
Track history (hours):
 
Tides and Currents Weather Stations Pressure Air Temp Water Temp Dewpoint Dewpoint Depression Visibility Wind Speed Wind Dir Waves Ship Positions

Al Rekayyat

Last reported at 2017-Aug-13 09:31 UTC. Time now 2017-Aug-20 23:06 UTC.
Position N 01°19' E 103°18'.

Length 315 m; draft 9.4 m.

Type: Ship (hazmat cat D). MMSI: 538003347.

Date/timePositionNaut miles runAvg speedWind from/ knotsBaromVisibWave heightAir tempDewpointWater temp
2017-Aug-13 09:31N 01°19' E 103°18'217.7
2017-Aug-13 09:24N 01°18' E 103°20'717.4
2017-Aug-13 08:59N 01°14' E 103°26'816.1
2017-Aug-13 08:30N 01°12' E 103°33'713.3
2017-Aug-13 07:59N 01°11' E 103°40'2 4.6
2017-Aug-13 07:31N 01°10' E 103°42'0 0.3
2017-Aug-13 06:55N 01°10' E 103°43'0 0.0
2017-Aug-13 06:28N 01°10' E 103°43'0 0.0
2017-Aug-13 05:56N 01°10' E 103°43'0 0.0
2017-Aug-13 05:26N 01°10' E 103°43'0 0.0
2017-Aug-13 04:53N 01°10' E 103°43'0 0.0
2017-Aug-13 04:30N 01°10' E 103°43'0 0.0
2017-Aug-13 03:54N 01°10' E 103°43'0 0.1
2017-Aug-13 03:30N 01°11' E 103°43'0 0.0
2017-Aug-13 03:01N 01°11' E 103°43'0 0.1
2017-Aug-13 02:28N 01°11' E 103°42'0 0.1
2017-Aug-13 01:58N 01°11' E 103°43'0 0.0
2017-Aug-13 01:29N 01°11' E 103°43'0 0.0
2017-Aug-13 00:59N 01°11' E 103°43'0 0.0
2017-Aug-13 00:29N 01°10' E 103°43'0 0.0
2017-Aug-12 23:59N 01°10' E 103°43'0 0.0
2017-Aug-12 23:30N 01°10' E 103°43'0 0.0
2017-Aug-12 23:00N 01°10' E 103°43'0 0.0
2017-Aug-12 22:30N 01°10' E 103°43'0 0.0
2017-Aug-12 21:55N 01°10' E 103°43'0 0.0
2017-Aug-12 21:28N 01°10' E 103°43'0 0.0
2017-Aug-12 20:58N 01°10' E 103°43'0 0.0
2017-Aug-12 20:29N 01°10' E 103°43'0 0.0
2017-Aug-12 19:56N 01°10' E 103°43'0 0.0
2017-Aug-12 19:20N 01°10' E 103°43'0 0.0
2017-Aug-12 18:54N 01°10' E 103°43'0 0.1
2017-Aug-12 18:30N 01°10' E 103°43'0 0.1
2017-Aug-12 17:54N 01°10' E 103°43'0 0.0
2017-Aug-12 17:25N 01°10' E 103°43'0 0.0
2017-Aug-12 16:58N 01°10' E 103°43'0 0.1
2017-Aug-12 16:25N 01°11' E 103°43'0 0.3
2017-Aug-12 15:44N 01°11' E 103°42'0 0.2
2017-Aug-12 15:26N 01°11' E 103°42'0 0.2
2017-Aug-12 14:59N 01°11' E 103°42'0 0.0
2017-Aug-12 14:30N 01°11' E 103°42'0 0.0
2017-Aug-12 13:57N 01°11' E 103°42'0 0.0
2017-Aug-12 13:27N 01°11' E 103°42'0 0.1
2017-Aug-12 12:58N 01°11' E 103°42'0 0.1
2017-Aug-12 12:22N 01°11' E 103°42'0 0.1
2017-Aug-12 11:55N 01°11' E 103°42'0 0.1
2017-Aug-12 11:26N 01°11' E 103°42'0 0.0
2017-Aug-12 10:59N 01°11' E 103°42'0 0.1
2017-Aug-12 10:29N 01°11' E 103°43'0 0.1
2017-Aug-12 09:54N 01°10' E 103°43'0 0.0
2017-Aug-12 09:30N 01°10' E 103°43'0 0.0
2017-Aug-12 08:57N 01°10' E 103°43'0 0.0
2017-Aug-12 08:31N 01°10' E 103°43'0 0.1
2017-Aug-12 07:58N 01°10' E 103°43'0 0.0
2017-Aug-12 07:22N 01°10' E 103°43'0 0.1
2017-Aug-12 06:59N 01°10' E 103°43'0 0.0
2017-Aug-12 06:29N 01°10' E 103°43'0 0.1
2017-Aug-12 05:59N 01°10' E 103°43'0 0.1
2017-Aug-12 05:30N 01°10' E 103°43'0 0.1
2017-Aug-12 04:57N 01°10' E 103°43'0 0.3
2017-Aug-12 04:30N 01°11' E 103°42'0 0.1
2017-Aug-12 04:00N 01°11' E 103°42'0 0.3
2017-Aug-12 03:30N 01°10' E 103°43'0 0.0
2017-Aug-12 03:00N 01°10' E 103°43'0 0.0
2017-Aug-12 02:30N 01°10' E 103°43'0 0.1
2017-Aug-12 02:00N 01°10' E 103°43'0 0.1
2017-Aug-12 01:30N 01°10' E 103°43'0 0.2
2017-Aug-12 01:00N 01°10' E 103°42'2 3.7
2017-Aug-12 00:30N 01°09' E 103°44'4 8.3
2017-Aug-12 00:00N 01°11' E 103°48'4 8.1
2017-Aug-11 23:30N 01°12' E 103°52'612.4
2017-Aug-11 23:00N 01°14' E 103°57'713.4
2017-Aug-11 22:30N 01°16' E 104°04'  
2017-Aug-05 09:58N 33°50' E 135°00'816.8
2017-Aug-05 09:30N 33°58' E 134°58'815.6
2017-Aug-05 09:00N 34°06' E 134°58'612.4
2017-Aug-05 08:31N 34°12' E 134°57'4 7.1
2017-Aug-05 08:00N 34°15' E 134°58'611.5
2017-Aug-05 07:30N 34°21' E 135°00'612.8
2017-Aug-05 07:00N 34°25' E 135°05'713.4
2017-Aug-05 06:30N 34°29' E 135°12'612.6
2017-Aug-05 06:00N 34°33' E 135°18'4 7.9
2017-Aug-05 05:30N 34°33' E 135°23'1 2.0
2017-Aug-05 05:00N 34°34' E 135°24'0 0.0
2017-Aug-05 04:19N 34°34' E 135°24'0 0.0
2017-Aug-05 03:49N 34°34' E 135°24'0 0.0
2017-Aug-05 03:13N 34°34' E 135°24'0 0.0
2017-Aug-05 02:44N 34°34' E 135°24'0 0.0
2017-Aug-05 02:26N 34°34' E 135°24'0 0.0
2017-Aug-05 01:56N 34°34' E 135°24'0 0.0
2017-Aug-05 01:27N 34°34' E 135°24'0 0.0
2017-Aug-05 00:04N 34°34' E 135°24'0 0.0
2017-Aug-04 23:52N 34°34' E 135°24'0 0.0
2017-Aug-04 23:28N 34°34' E 135°24'0 0.0
2017-Aug-04 22:58N 34°34' E 135°24'0 0.0
2017-Aug-04 22:17N 34°34' E 135°24'0 0.0
2017-Aug-04 21:59N 34°34' E 135°24'0 0.0
2017-Aug-04 21:29N 34°34' E 135°24'0 0.0
2017-Aug-04 21:00N 34°34' E 135°24'0 0.0
2017-Aug-04 20:30N 34°34' E 135°24'0 0.0
2017-Aug-04 20:00N 34°34' E 135°24'0 0.0
2017-Aug-04 19:25N 34°34' E 135°24'0 0.0
2017-Aug-04 18:55N 34°34' E 135°24'0 0.0
2017-Aug-04 18:19N 34°34' E 135°24'0 0.0
2017-Aug-04 17:50N 34°34' E 135°24'0 0.0
2017-Aug-04 17:26N 34°34' E 135°24'0 0.0
2017-Aug-04 16:56N 34°34' E 135°24'0 0.0
2017-Aug-04 16:27N 34°34' E 135°24'0 0.0
2017-Aug-04 15:57N 34°34' E 135°24'0 0.0
2017-Aug-04 15:21N 34°34' E 135°24'0 0.0
2017-Aug-04 14:58N 34°34' E 135°24'0 0.0
2017-Aug-04 13:58N 34°34' E 135°24'0 0.0
2017-Aug-04 13:29N 34°34' E 135°24'0 0.0
2017-Aug-04 12:59N 34°34' E 135°24'0 0.0
2017-Aug-04 12:29N 34°34' E 135°24'0 0.0
2017-Aug-04 12:00N 34°34' E 135°24'0 0.0
2017-Aug-04 11:30N 34°34' E 135°24'0 0.0
2017-Aug-04 11:00N 34°34' E 135°24'0 0.0
2017-Aug-04 10:19N 34°34' E 135°24'0 0.0
2017-Aug-04 08:56N 34°34' E 135°24'0 0.0
2017-Aug-04 08:26N 34°34' E 135°24'0 0.0
2017-Aug-04 07:56N 34°34' E 135°24'0 0.0
2017-Aug-04 04:29N 34°34' E 135°24'0 0.0
2017-Aug-04 03:47N 34°34' E 135°24'0 0.0
2017-Aug-04 03:11N 34°34' E 135°24'0 0.0
2017-Aug-04 03:00N 34°34' E 135°24'0 0.0
2017-Aug-04 00:52N 34°34' E 135°24'0 0.0
2017-Aug-04 00:30N 34°34' E 135°24'0 0.0
2017-Aug-04 00:00N 34°34' E 135°24'1 1.1
2017-Aug-03 23:30N 34°34' E 135°24'3 6.6
2017-Aug-03 23:00N 34°33' E 135°20'4 8.9
2017-Aug-03 22:30N 34°31' E 135°15'510.0
2017-Aug-03 22:00N 34°28' E 135°10'612.2
2017-Aug-03 21:30N 34°24' E 135°05'713.3
2017-Aug-03 20:59N 34°18' E 135°00'612.5
2017-Aug-03 20:30N 34°12' E 134°60'510.3
2017-Aug-03 20:00N 34°07' E 135°00'4 8.2
2017-Aug-03 19:30N 34°03' E 135°00'5 9.0
2017-Aug-03 19:00N 33°58' E 135°00'  

Dump ship's entire track history